sensor_id;sensor_type;location;lat;lon;timestamp;P1;durP1;ratioP1;P2;durP2;ratioP2
56728;SDS011;42612;52.232;7.560;2023-03-22T00:01:15;7.13;;;5.32;;
56728;SDS011;42612;52.232;7.560;2023-03-22T00:03:47;6.97;;;5.47;;
56728;SDS011;42612;52.232;7.560;2023-03-22T00:08:40;11.18;;;5.88;;
56728;SDS011;42612;52.232;7.560;2023-03-22T00:11:07;6.67;;;5.47;;
56728;SDS011;42612;52.232;7.560;2023-03-22T00:13:34;8.60;;;6.30;;
56728;SDS011;42612;52.232;7.560;2023-03-22T00:16:01;7.45;;;5.60;;
56728;SDS011;42612;52.232;7.560;2023-03-22T00:18:28;7.35;;;5.47;;
56728;SDS011;42612;52.232;7.560;2023-03-22T00:20:56;8.20;;;6.45;;
56728;SDS011;42612;52.232;7.560;2023-03-22T00:23:24;11.48;;;6.30;;
56728;SDS011;42612;52.232;7.560;2023-03-22T00:25:50;10.30;;;5.93;;
56728;SDS011;42612;52.232;7.560;2023-03-22T00:28:16;8.70;;;5.65;;
56728;SDS011;42612;52.232;7.560;2023-03-22T00:30:49;7.28;;;5.53;;
56728;SDS011;42612;52.232;7.560;2023-03-22T00:33:20;8.53;;;5.80;;
56728;SDS011;42612;52.232;7.560;2023-03-22T00:35:47;8.65;;;5.68;;
56728;SDS011;42612;52.232;7.560;2023-03-22T00:38:17;8.93;;;5.32;;
56728;SDS011;42612;52.232;7.560;2023-03-22T00:40:43;10.35;;;6.22;;
56728;SDS011;42612;52.232;7.560;2023-03-22T00:43:09;9.32;;;5.65;;
56728;SDS011;42612;52.232;7.560;2023-03-22T00:45:35;9.20;;;6.32;;
56728;SDS011;42612;52.232;7.560;2023-03-22T00:48:02;9.25;;;5.78;;
56728;SDS011;42612;52.232;7.560;2023-03-22T00:50:28;9.80;;;5.90;;
56728;SDS011;42612;52.232;7.560;2023-03-22T00:52:53;8.45;;;5.72;;
56728;SDS011;42612;52.232;7.560;2023-03-22T00:55:19;8.85;;;6.35;;
56728;SDS011;42612;52.232;7.560;2023-03-22T00:57:45;8.10;;;5.13;;
56728;SDS011;42612;52.232;7.560;2023-03-22T01:00:10;9.07;;;5.43;;
56728;SDS011;42612;52.232;7.560;2023-03-22T01:02:40;7.57;;;6.18;;
56728;SDS011;42612;52.232;7.560;2023-03-22T01:05:07;8.95;;;6.05;;
56728;SDS011;42612;52.232;7.560;2023-03-22T01:07:39;10.05;;;5.55;;
56728;SDS011;42612;52.232;7.560;2023-03-22T01:10:07;8.48;;;6.07;;
56728;SDS011;42612;52.232;7.560;2023-03-22T01:12:34;7.75;;;5.43;;
56728;SDS011;42612;52.232;7.560;2023-03-22T01:15:00;8.93;;;5.35;;
56728;SDS011;42612;52.232;7.560;2023-03-22T01:17:27;8.98;;;5.45;;
56728;SDS011;42612;52.232;7.560;2023-03-22T01:19:53;6.93;;;5.15;;
56728;SDS011;42612;52.232;7.560;2023-03-22T01:22:19;9.23;;;6.03;;
56728;SDS011;42612;52.232;7.560;2023-03-22T01:24:44;7.57;;;5.15;;
56728;SDS011;42612;52.232;7.560;2023-03-22T01:27:10;6.47;;;5.07;;
56728;SDS011;42612;52.232;7.560;2023-03-22T01:29:36;9.43;;;5.35;;
56728;SDS011;42612;52.232;7.560;2023-03-22T01:32:01;7.53;;;4.75;;
56728;SDS011;42612;52.232;7.560;2023-03-22T01:34:28;9.85;;;5.35;;
56728;SDS011;42612;52.232;7.560;2023-03-22T01:36:53;6.93;;;5.18;;
56728;SDS011;42612;52.232;7.560;2023-03-22T01:39:19;6.57;;;4.40;;
56728;SDS011;42612;52.232;7.560;2023-03-22T01:41:45;8.43;;;4.70;;
56728;SDS011;42612;52.232;7.560;2023-03-22T01:46:47;8.68;;;5.82;;
56728;SDS011;42612;52.232;7.560;2023-03-22T01:49:16;8.73;;;5.05;;
56728;SDS011;42612;52.232;7.560;2023-03-22T01:51:50;9.82;;;5.13;;
56728;SDS011;42612;52.232;7.560;2023-03-22T01:54:23;6.85;;;4.90;;
56728;SDS011;42612;52.232;7.560;2023-03-22T01:57:06;8.52;;;5.28;;
56728;SDS011;42612;52.232;7.560;2023-03-22T01:59:33;6.68;;;4.80;;
56728;SDS011;42612;52.232;7.560;2023-03-22T02:01:59;7.57;;;4.85;;
56728;SDS011;42612;52.232;7.560;2023-03-22T02:04:26;6.90;;;4.47;;
56728;SDS011;42612;52.232;7.560;2023-03-22T02:06:59;8.20;;;4.78;;
56728;SDS011;42612;52.232;7.560;2023-03-22T02:09:33;12.10;;;5.30;;
56728;SDS011;42612;52.232;7.560;2023-03-22T02:17:50;7.63;;;4.60;;
56728;SDS011;42612;52.232;7.560;2023-03-22T02:26:42;6.70;;;4.53;;
56728;SDS011;42612;52.232;7.560;2023-03-22T02:47:47;7.32;;;5.25;;
56728;SDS011;42612;52.232;7.560;2023-03-22T02:53:13;8.30;;;5.55;;
56728;SDS011;42612;52.232;7.560;2023-03-22T02:56:26;6.68;;;5.00;;
56728;SDS011;42612;52.232;7.560;2023-03-22T02:58:59;8.45;;;5.50;;
56728;SDS011;42612;52.232;7.560;2023-03-22T03:01:30;7.05;;;5.00;;
56728;SDS011;42612;52.232;7.560;2023-03-22T03:04:04;9.57;;;4.65;;
56728;SDS011;42612;52.232;7.560;2023-03-22T03:06:36;8.05;;;5.53;;
56728;SDS011;42612;52.232;7.560;2023-03-22T03:09:10;9.77;;;5.78;;
56728;SDS011;42612;52.232;7.560;2023-03-22T03:11:42;7.50;;;5.57;;
56728;SDS011;42612;52.232;7.560;2023-03-22T03:14:25;9.75;;;6.00;;
56728;SDS011;42612;52.232;7.560;2023-03-22T03:17:10;9.32;;;5.07;;
56728;SDS011;42612;52.232;7.560;2023-03-22T03:28:37;6.68;;;5.38;;
56728;SDS011;42612;52.232;7.560;2023-03-22T03:34:25;9.03;;;6.20;;
56728;SDS011;42612;52.232;7.560;2023-03-22T03:37:04;8.10;;;5.00;;
56728;SDS011;42612;52.232;7.560;2023-03-22T03:39:53;7.47;;;5.85;;
56728;SDS011;42612;52.232;7.560;2023-03-22T03:42:25;10.20;;;5.70;;
56728;SDS011;42612;52.232;7.560;2023-03-22T03:44:54;9.38;;;5.80;;
56728;SDS011;42612;52.232;7.560;2023-03-22T03:47:20;8.63;;;5.93;;
56728;SDS011;42612;52.232;7.560;2023-03-22T03:49:47;12.45;;;6.15;;
56728;SDS011;42612;52.232;7.560;2023-03-22T03:52:12;7.68;;;6.15;;
56728;SDS011;42612;52.232;7.560;2023-03-22T03:54:38;7.50;;;5.35;;
56728;SDS011;42612;52.232;7.560;2023-03-22T03:57:05;8.98;;;6.20;;
56728;SDS011;42612;52.232;7.560;2023-03-22T03:59:30;6.55;;;4.93;;
56728;SDS011;42612;52.232;7.560;2023-03-22T04:01:56;9.82;;;5.55;;
56728;SDS011;42612;52.232;7.560;2023-03-22T04:04:23;8.38;;;6.07;;
56728;SDS011;42612;52.232;7.560;2023-03-22T04:06:52;7.97;;;5.55;;
56728;SDS011;42612;52.232;7.560;2023-03-22T04:09:24;10.27;;;5.85;;
56728;SDS011;42612;52.232;7.560;2023-03-22T04:11:53;8.82;;;5.25;;
56728;SDS011;42612;52.232;7.560;2023-03-22T04:14:19;8.00;;;5.30;;
56728;SDS011;42612;52.232;7.560;2023-03-22T04:16:46;8.00;;;5.55;;
56728;SDS011;42612;52.232;7.560;2023-03-22T04:19:12;8.52;;;5.85;;
56728;SDS011;42612;52.232;7.560;2023-03-22T04:21:38;10.80;;;5.95;;
56728;SDS011;42612;52.232;7.560;2023-03-22T04:24:04;10.85;;;5.68;;
56728;SDS011;42612;52.232;7.560;2023-03-22T04:26:31;8.05;;;5.40;;
56728;SDS011;42612;52.232;7.560;2023-03-22T04:28:57;8.15;;;5.22;;
56728;SDS011;42612;52.232;7.560;2023-03-22T04:31:23;8.30;;;5.70;;
56728;SDS011;42612;52.232;7.560;2023-03-22T04:33:49;8.10;;;5.40;;
56728;SDS011;42612;52.232;7.560;2023-03-22T04:36:20;8.23;;;5.43;;
56728;SDS011;42612;52.232;7.560;2023-03-22T04:38:47;10.82;;;5.85;;
56728;SDS011;42612;52.232;7.560;2023-03-22T04:41:13;7.80;;;5.65;;
56728;SDS011;42612;52.232;7.560;2023-03-22T04:43:39;8.55;;;5.88;;
56728;SDS011;42612;52.232;7.560;2023-03-22T04:46:05;6.88;;;5.07;;
56728;SDS011;42612;52.232;7.560;2023-03-22T04:48:36;8.77;;;5.68;;
56728;SDS011;42612;52.232;7.560;2023-03-22T04:51:05;6.97;;;4.97;;
56728;SDS011;42612;52.232;7.560;2023-03-22T04:56:04;7.53;;;5.13;;
56728;SDS011;42612;52.232;7.560;2023-03-22T04:58:33;7.07;;;5.18;;
56728;SDS011;42612;52.232;7.560;2023-03-22T05:01:06;7.45;;;5.15;;
56728;SDS011;42612;52.232;7.560;2023-03-22T05:03:34;10.20;;;5.97;;
56728;SDS011;42612;52.232;7.560;2023-03-22T05:06:03;8.80;;;4.80;;
56728;SDS011;42612;52.232;7.560;2023-03-22T05:08:32;11.77;;;5.38;;
56728;SDS011;42612;52.232;7.560;2023-03-22T05:11:03;8.45;;;5.60;;
56728;SDS011;42612;52.232;7.560;2023-03-22T05:13:35;9.38;;;5.25;;
56728;SDS011;42612;52.232;7.560;2023-03-22T05:16:02;7.65;;;5.32;;
56728;SDS011;42612;52.232;7.560;2023-03-22T05:20:57;8.13;;;5.70;;
56728;SDS011;42612;52.232;7.560;2023-03-22T05:23:24;7.65;;;5.70;;
56728;SDS011;42612;52.232;7.560;2023-03-22T05:25:51;8.32;;;5.55;;
56728;SDS011;42612;52.232;7.560;2023-03-22T05:28:18;12.73;;;6.90;;
56728;SDS011;42612;52.232;7.560;2023-03-22T05:30:46;8.27;;;5.43;;
56728;SDS011;42612;52.232;7.560;2023-03-22T05:33:13;8.80;;;5.43;;
56728;SDS011;42612;52.232;7.560;2023-03-22T05:35:41;9.68;;;5.05;;
56728;SDS011;42612;52.232;7.560;2023-03-22T05:38:07;7.93;;;4.90;;
56728;SDS011;42612;52.232;7.560;2023-03-22T05:40:33;7.88;;;5.35;;
56728;SDS011;42612;52.232;7.560;2023-03-22T05:43:00;8.73;;;5.47;;
56728;SDS011;42612;52.232;7.560;2023-03-22T05:45:25;7.35;;;5.18;;
56728;SDS011;42612;52.232;7.560;2023-03-22T05:47:51;7.93;;;5.25;;
56728;SDS011;42612;52.232;7.560;2023-03-22T05:50:18;6.35;;;4.75;;
56728;SDS011;42612;52.232;7.560;2023-03-22T05:52:46;8.52;;;5.10;;
56728;SDS011;42612;52.232;7.560;2023-03-22T05:55:12;7.20;;;5.03;;
56728;SDS011;42612;52.232;7.560;2023-03-22T05:57:41;8.88;;;5.32;;
56728;SDS011;42612;52.232;7.560;2023-03-22T06:00:09;10.13;;;5.70;;
56728;SDS011;42612;52.232;7.560;2023-03-22T06:02:39;10.77;;;5.40;;
56728;SDS011;42612;52.232;7.560;2023-03-22T06:07:35;9.45;;;6.07;;
56728;SDS011;42612;52.232;7.560;2023-03-22T06:10:01;7.50;;;4.70;;
56728;SDS011;42612;52.232;7.560;2023-03-22T06:12:28;9.05;;;4.93;;
56728;SDS011;42612;52.232;7.560;2023-03-22T06:14:55;8.30;;;4.97;;
56728;SDS011;42612;52.232;7.560;2023-03-22T06:17:21;10.38;;;5.45;;
56728;SDS011;42612;52.232;7.560;2023-03-22T06:19:47;7.68;;;4.78;;
56728;SDS011;42612;52.232;7.560;2023-03-22T06:22:14;9.52;;;5.53;;
56728;SDS011;42612;52.232;7.560;2023-03-22T06:24:40;7.35;;;5.05;;
56728;SDS011;42612;52.232;7.560;2023-03-22T06:27:06;11.70;;;6.80;;
56728;SDS011;42612;52.232;7.560;2023-03-22T06:29:33;20.02;;;12.75;;
56728;SDS011;42612;52.232;7.560;2023-03-22T06:32:00;12.93;;;6.78;;
56728;SDS011;42612;52.232;7.560;2023-03-22T06:34:26;13.23;;;7.35;;
56728;SDS011;42612;52.232;7.560;2023-03-22T06:36:52;11.65;;;7.70;;
56728;SDS011;42612;52.232;7.560;2023-03-22T06:39:18;7.35;;;5.28;;
56728;SDS011;42612;52.232;7.560;2023-03-22T06:41:44;8.00;;;4.97;;
56728;SDS011;42612;52.232;7.560;2023-03-22T06:44:10;7.57;;;4.60;;
56728;SDS011;42612;52.232;7.560;2023-03-22T06:46:36;6.65;;;5.25;;
56728;SDS011;42612;52.232;7.560;2023-03-22T06:49:02;8.30;;;4.50;;
56728;SDS011;42612;52.232;7.560;2023-03-22T06:51:29;8.93;;;4.57;;
56728;SDS011;42612;52.232;7.560;2023-03-22T06:53:55;8.32;;;4.18;;
56728;SDS011;42612;52.232;7.560;2023-03-22T06:56:21;9.07;;;4.63;;
56728;SDS011;42612;52.232;7.560;2023-03-22T06:58:47;6.18;;;4.45;;
56728;SDS011;42612;52.232;7.560;2023-03-22T07:01:15;5.85;;;4.18;;
56728;SDS011;42612;52.232;7.560;2023-03-22T07:03:43;8.38;;;4.32;;
56728;SDS011;42612;52.232;7.560;2023-03-22T07:06:09;8.57;;;4.35;;
56728;SDS011;42612;52.232;7.560;2023-03-22T07:08:35;8.05;;;4.60;;
56728;SDS011;42612;52.232;7.560;2023-03-22T07:11:02;7.38;;;4.30;;
56728;SDS011;42612;52.232;7.560;2023-03-22T07:13:28;10.05;;;4.05;;
56728;SDS011;42612;52.232;7.560;2023-03-22T07:15:55;5.93;;;3.67;;
56728;SDS011;42612;52.232;7.560;2023-03-22T07:18:22;8.88;;;3.92;;
56728;SDS011;42612;52.232;7.560;2023-03-22T07:20:48;5.20;;;3.65;;
56728;SDS011;42612;52.232;7.560;2023-03-22T07:23:15;11.25;;;3.97;;
56728;SDS011;42612;52.232;7.560;2023-03-22T07:25:41;5.40;;;3.30;;
56728;SDS011;42612;52.232;7.560;2023-03-22T07:28:11;10.38;;;3.78;;
56728;SDS011;42612;52.232;7.560;2023-03-22T07:30:38;5.10;;;3.33;;
56728;SDS011;42612;52.232;7.560;2023-03-22T07:33:04;5.35;;;3.33;;
56728;SDS011;42612;52.232;7.560;2023-03-22T07:37:58;7.22;;;2.92;;
56728;SDS011;42612;52.232;7.560;2023-03-22T07:40:24;2.95;;;2.25;;
56728;SDS011;42612;52.232;7.560;2023-03-22T07:42:51;4.78;;;2.13;;
56728;SDS011;42612;52.232;7.560;2023-03-22T07:45:17;7.60;;;3.10;;
56728;SDS011;42612;52.232;7.560;2023-03-22T07:50:11;5.30;;;2.15;;
56728;SDS011;42612;52.232;7.560;2023-03-22T07:52:38;3.67;;;2.65;;
56728;SDS011;42612;52.232;7.560;2023-03-22T07:55:05;7.60;;;2.60;;
56728;SDS011;42612;52.232;7.560;2023-03-22T07:57:33;7.13;;;2.30;;
56728;SDS011;42612;52.232;7.560;2023-03-22T08:00:00;4.78;;;1.98;;
56728;SDS011;42612;52.232;7.560;2023-03-22T08:02:26;4.93;;;1.88;;
56728;SDS011;42612;52.232;7.560;2023-03-22T08:04:52;4.60;;;2.58;;
56728;SDS011;42612;52.232;7.560;2023-03-22T08:07:19;3.10;;;2.05;;
56728;SDS011;42612;52.232;7.560;2023-03-22T08:09:45;3.78;;;1.98;;
56728;SDS011;42612;52.232;7.560;2023-03-22T08:12:11;6.13;;;2.40;;
56728;SDS011;42612;52.232;7.560;2023-03-22T08:14:37;8.15;;;2.58;;
56728;SDS011;42612;52.232;7.560;2023-03-22T08:17:05;7.78;;;2.33;;
56728;SDS011;42612;52.232;7.560;2023-03-22T08:19:31;3.90;;;2.03;;
56728;SDS011;42612;52.232;7.560;2023-03-22T08:21:58;6.82;;;2.85;;
56728;SDS011;42612;52.232;7.560;2023-03-22T08:24:24;7.13;;;2.63;;
56728;SDS011;42612;52.232;7.560;2023-03-22T08:26:51;11.70;;;3.30;;
56728;SDS011;42612;52.232;7.560;2023-03-22T08:29:17;4.53;;;2.55;;
56728;SDS011;42612;52.232;7.560;2023-03-22T08:31:45;6.93;;;3.10;;
56728;SDS011;42612;52.232;7.560;2023-03-22T08:34:11;7.78;;;2.97;;
56728;SDS011;42612;52.232;7.560;2023-03-22T08:36:37;8.10;;;3.15;;
56728;SDS011;42612;52.232;7.560;2023-03-22T08:39:03;5.90;;;2.42;;
56728;SDS011;42612;52.232;7.560;2023-03-22T08:41:29;5.45;;;2.35;;
56728;SDS011;42612;52.232;7.560;2023-03-22T08:43:55;4.07;;;2.30;;
56728;SDS011;42612;52.232;7.560;2023-03-22T08:46:21;4.80;;;2.05;;
56728;SDS011;42612;52.232;7.560;2023-03-22T08:48:47;3.13;;;2.22;;
56728;SDS011;42612;52.232;7.560;2023-03-22T08:51:18;4.45;;;2.20;;
56728;SDS011;42612;52.232;7.560;2023-03-22T08:53:46;5.03;;;2.15;;
56728;SDS011;42612;52.232;7.560;2023-03-22T08:56:12;5.37;;;2.37;;
56728;SDS011;42612;52.232;7.560;2023-03-22T09:01:11;2.67;;;1.50;;
56728;SDS011;42612;52.232;7.560;2023-03-22T09:03:37;3.03;;;1.90;;
56728;SDS011;42612;52.232;7.560;2023-03-22T09:06:03;6.30;;;2.10;;
56728;SDS011;42612;52.232;7.560;2023-03-22T09:08:30;5.05;;;1.75;;
56728;SDS011;42612;52.232;7.560;2023-03-22T09:11:00;5.63;;;1.75;;
56728;SDS011;42612;52.232;7.560;2023-03-22T09:13:26;3.78;;;1.35;;
56728;SDS011;42612;52.232;7.560;2023-03-22T09:15:54;7.10;;;2.00;;
56728;SDS011;42612;52.232;7.560;2023-03-22T09:18:20;4.47;;;1.77;;
56728;SDS011;42612;52.232;7.560;2023-03-22T09:23:14;4.47;;;1.60;;
56728;SDS011;42612;52.232;7.560;2023-03-22T09:25:47;2.60;;;1.52;;
56728;SDS011;42612;52.232;7.560;2023-03-22T09:28:13;4.30;;;1.48;;
56728;SDS011;42612;52.232;7.560;2023-03-22T09:30:40;3.10;;;1.55;;
56728;SDS011;42612;52.232;7.560;2023-03-22T09:33:06;2.85;;;1.23;;
56728;SDS011;42612;52.232;7.560;2023-03-22T09:35:32;3.58;;;1.38;;
56728;SDS011;42612;52.232;7.560;2023-03-22T09:37:58;5.25;;;1.55;;
56728;SDS011;42612;52.232;7.560;2023-03-22T09:40:31;3.03;;;1.30;;
56728;SDS011;42612;52.232;7.560;2023-03-22T09:42:59;3.03;;;1.30;;
56728;SDS011;42612;52.232;7.560;2023-03-22T09:45:37;2.90;;;1.33;;
56728;SDS011;42612;52.232;7.560;2023-03-22T09:48:13;4.00;;;1.40;;
56728;SDS011;42612;52.232;7.560;2023-03-22T09:50:47;2.42;;;1.60;;
56728;SDS011;42612;52.232;7.560;2023-03-22T09:53:16;4.63;;;1.30;;
56728;SDS011;42612;52.232;7.560;2023-03-22T09:55:49;3.72;;;1.80;;
56728;SDS011;42612;52.232;7.560;2023-03-22T09:58:38;2.72;;;1.30;;
56728;SDS011;42612;52.232;7.560;2023-03-22T10:04:33;3.72;;;1.40;;
56728;SDS011;42612;52.232;7.560;2023-03-22T10:07:23;3.78;;;1.40;;
56728;SDS011;42612;52.232;7.560;2023-03-22T10:12:37;2.30;;;1.85;;
56728;SDS011;42612;52.232;7.560;2023-03-22T10:15:32;2.90;;;1.40;;
56728;SDS011;42612;52.232;7.560;2023-03-22T10:18:02;4.45;;;1.15;;
56728;SDS011;42612;52.232;7.560;2023-03-22T10:20:56;3.38;;;1.27;;
56728;SDS011;42612;52.232;7.560;2023-03-22T10:26:28;6.80;;;1.75;;
56728;SDS011;42612;52.232;7.560;2023-03-22T10:29:00;6.57;;;1.23;;
56728;SDS011;42612;52.232;7.560;2023-03-22T10:31:28;5.68;;;1.50;;
56728;SDS011;42612;52.232;7.560;2023-03-22T10:34:01;4.97;;;1.70;;
56728;SDS011;42612;52.232;7.560;2023-03-22T10:36:37;5.30;;;1.58;;
56728;SDS011;42612;52.232;7.560;2023-03-22T10:41:57;4.82;;;1.38;;
56728;SDS011;42612;52.232;7.560;2023-03-22T10:44:29;4.35;;;1.58;;
56728;SDS011;42612;52.232;7.560;2023-03-22T10:47:00;5.82;;;1.50;;
56728;SDS011;42612;52.232;7.560;2023-03-22T10:49:34;2.15;;;1.48;;
56728;SDS011;42612;52.232;7.560;2023-03-22T10:54:59;2.35;;;1.20;;
56728;SDS011;42612;52.232;7.560;2023-03-22T10:57:25;4.18;;;1.50;;
56728;SDS011;42612;52.232;7.560;2023-03-22T10:59:51;8.55;;;1.80;;
56728;SDS011;42612;52.232;7.560;2023-03-22T11:04:56;8.38;;;2.20;;
56728;SDS011;42612;52.232;7.560;2023-03-22T11:07:35;2.72;;;1.70;;
56728;SDS011;42612;52.232;7.560;2023-03-22T11:12:37;4.75;;;1.50;;
56728;SDS011;42612;52.232;7.560;2023-03-22T11:15:30;3.13;;;1.38;;
56728;SDS011;42612;52.232;7.560;2023-03-22T11:18:20;3.60;;;1.13;;
56728;SDS011;42612;52.232;7.560;2023-03-22T11:23:53;5.20;;;1.35;;
56728;SDS011;42612;52.232;7.560;2023-03-22T11:26:27;4.28;;;1.45;;
56728;SDS011;42612;52.232;7.560;2023-03-22T11:29:12;3.40;;;1.60;;
56728;SDS011;42612;52.232;7.560;2023-03-22T11:31:50;2.90;;;1.25;;
56728;SDS011;42612;52.232;7.560;2023-03-22T11:34:25;4.93;;;1.85;;
56728;SDS011;42612;52.232;7.560;2023-03-22T11:36:54;4.63;;;1.73;;
56728;SDS011;42612;52.232;7.560;2023-03-22T11:39:25;5.78;;;1.42;;
56728;SDS011;42612;52.232;7.560;2023-03-22T11:41:53;3.55;;;1.60;;
56728;SDS011;42612;52.232;7.560;2023-03-22T11:44:30;3.67;;;1.45;;
56728;SDS011;42612;52.232;7.560;2023-03-22T11:46:59;2.95;;;1.60;;
56728;SDS011;42612;52.232;7.560;2023-03-22T11:49:34;2.92;;;1.50;;
56728;SDS011;42612;52.232;7.560;2023-03-22T11:52:07;2.88;;;1.58;;
56728;SDS011;42612;52.232;7.560;2023-03-22T11:54:39;6.40;;;1.45;;
56728;SDS011;42612;52.232;7.560;2023-03-22T11:57:09;5.68;;;1.70;;
56728;SDS011;42612;52.232;7.560;2023-03-22T11:59:46;6.45;;;1.88;;
56728;SDS011;42612;52.232;7.560;2023-03-22T12:02:19;5.32;;;1.45;;
56728;SDS011;42612;52.232;7.560;2023-03-22T12:04:52;4.63;;;1.50;;
56728;SDS011;42612;52.232;7.560;2023-03-22T12:07:26;4.25;;;1.48;;
56728;SDS011;42612;52.232;7.560;2023-03-22T12:10:20;2.72;;;1.40;;
56728;SDS011;42612;52.232;7.560;2023-03-22T12:12:51;4.60;;;1.60;;
56728;SDS011;42612;52.232;7.560;2023-03-22T12:15:25;4.05;;;1.25;;
56728;SDS011;42612;52.232;7.560;2023-03-22T12:20:39;3.72;;;1.42;;
56728;SDS011;42612;52.232;7.560;2023-03-22T12:23:30;8.20;;;1.92;;
56728;SDS011;42612;52.232;7.560;2023-03-22T12:31:26;6.72;;;1.83;;
56728;SDS011;42612;52.232;7.560;2023-03-22T12:34:21;5.72;;;2.00;;
56728;SDS011;42612;52.232;7.560;2023-03-22T12:36:59;3.60;;;1.45;;
56728;SDS011;42612;52.232;7.560;2023-03-22T12:39:28;3.33;;;1.77;;
56728;SDS011;42612;52.232;7.560;2023-03-22T12:42:25;3.10;;;1.48;;
56728;SDS011;42612;52.232;7.560;2023-03-22T12:45:12;2.58;;;1.70;;
56728;SDS011;42612;52.232;7.560;2023-03-22T12:47:45;4.10;;;1.90;;
56728;SDS011;42612;52.232;7.560;2023-03-22T12:50:17;4.82;;;1.73;;
56728;SDS011;42612;52.232;7.560;2023-03-22T12:52:48;1.88;;;1.40;;
56728;SDS011;42612;52.232;7.560;2023-03-22T12:55:22;5.88;;;1.90;;
56728;SDS011;42612;52.232;7.560;2023-03-22T12:57:55;3.30;;;1.70;;
56728;SDS011;42612;52.232;7.560;2023-03-22T13:00:26;6.60;;;1.60;;
56728;SDS011;42612;52.232;7.560;2023-03-22T13:03:19;6.28;;;1.63;;
56728;SDS011;42612;52.232;7.560;2023-03-22T13:11:32;7.38;;;1.70;;
56728;SDS011;42612;52.232;7.560;2023-03-22T13:13:59;4.07;;;1.77;;
56728;SDS011;42612;52.232;7.560;2023-03-22T13:16:41;4.15;;;1.90;;
56728;SDS011;42612;52.232;7.560;2023-03-22T13:19:37;2.80;;;1.38;;
56728;SDS011;42612;52.232;7.560;2023-03-22T13:22:16;6.68;;;1.92;;
56728;SDS011;42612;52.232;7.560;2023-03-22T13:27:37;6.03;;;2.35;;
56728;SDS011;42612;52.232;7.560;2023-03-22T13:32:59;6.38;;;2.83;;
56728;SDS011;42612;52.232;7.560;2023-03-22T13:35:38;5.63;;;2.28;;
56728;SDS011;42612;52.232;7.560;2023-03-22T13:38:09;6.38;;;2.40;;
56728;SDS011;42612;52.232;7.560;2023-03-22T13:43:49;5.20;;;1.87;;
56728;SDS011;42612;52.232;7.560;2023-03-22T13:51:20;2.85;;;1.80;;
56728;SDS011;42612;52.232;7.560;2023-03-22T13:56:48;29.23;;;16.17;;
56728;SDS011;42612;52.232;7.560;2023-03-22T14:04:42;7.30;;;2.42;;
56728;SDS011;42612;52.232;7.560;2023-03-22T14:10:19;3.67;;;2.10;;
56728;SDS011;42612;52.232;7.560;2023-03-22T14:12:54;4.95;;;2.15;;
56728;SDS011;42612;52.232;7.560;2023-03-22T14:15:30;7.63;;;1.95;;
56728;SDS011;42612;52.232;7.560;2023-03-22T14:18:02;2.85;;;1.50;;
56728;SDS011;42612;52.232;7.560;2023-03-22T14:20:50;5.82;;;1.52;;
56728;SDS011;42612;52.232;7.560;2023-03-22T14:23:24;3.13;;;1.45;;
56728;SDS011;42612;52.232;7.560;2023-03-22T14:26:18;4.25;;;1.55;;
56728;SDS011;42612;52.232;7.560;2023-03-22T14:28:49;2.38;;;1.05;;
56728;SDS011;42612;52.232;7.560;2023-03-22T14:31:26;3.45;;;1.70;;
56728;SDS011;42612;52.232;7.560;2023-03-22T14:33:53;2.30;;;1.25;;
56728;SDS011;42612;52.232;7.560;2023-03-22T14:36:26;2.15;;;1.13;;
56728;SDS011;42612;52.232;7.560;2023-03-22T14:39:03;3.30;;;1.33;;
56728;SDS011;42612;52.232;7.560;2023-03-22T14:41:37;4.00;;;1.75;;
56728;SDS011;42612;52.232;7.560;2023-03-22T14:44:42;3.08;;;1.42;;
56728;SDS011;42612;52.232;7.560;2023-03-22T14:47:17;4.38;;;1.13;;
56728;SDS011;42612;52.232;7.560;2023-03-22T14:49:47;5.45;;;1.30;;
56728;SDS011;42612;52.232;7.560;2023-03-22T14:52:16;1.88;;;1.33;;
56728;SDS011;42612;52.232;7.560;2023-03-22T14:54:46;4.43;;;1.30;;
56728;SDS011;42612;52.232;7.560;2023-03-22T14:57:15;2.88;;;1.10;;
56728;SDS011;42612;52.232;7.560;2023-03-22T14:59:42;2.53;;;1.60;;
56728;SDS011;42612;52.232;7.560;2023-03-22T15:02:23;4.18;;;1.30;;
56728;SDS011;42612;52.232;7.560;2023-03-22T15:05:06;4.07;;;1.40;;
56728;SDS011;42612;52.232;7.560;2023-03-22T15:07:50;3.88;;;1.23;;
56728;SDS011;42612;52.232;7.560;2023-03-22T15:10:42;3.63;;;1.40;;
56728;SDS011;42612;52.232;7.560;2023-03-22T15:13:13;5.88;;;1.30;;
56728;SDS011;42612;52.232;7.560;2023-03-22T15:15:40;1.77;;;1.05;;
56728;SDS011;42612;52.232;7.560;2023-03-22T15:18:10;7.55;;;2.13;;
56728;SDS011;42612;52.232;7.560;2023-03-22T15:20:43;3.22;;;1.42;;
56728;SDS011;42612;52.232;7.560;2023-03-22T15:25:47;3.15;;;1.27;;
56728;SDS011;42612;52.232;7.560;2023-03-22T15:28:19;3.10;;;1.45;;
56728;SDS011;42612;52.232;7.560;2023-03-22T15:30:50;2.75;;;1.10;;
56728;SDS011;42612;52.232;7.560;2023-03-22T15:33:21;3.25;;;1.20;;
56728;SDS011;42612;52.232;7.560;2023-03-22T15:35:58;1.40;;;1.10;;
56728;SDS011;42612;52.232;7.560;2023-03-22T15:38:27;4.82;;;1.75;;
56728;SDS011;42612;52.232;7.560;2023-03-22T15:41:00;5.75;;;1.58;;
56728;SDS011;42612;52.232;7.560;2023-03-22T15:52:29;2.20;;;1.65;;
56728;SDS011;42612;52.232;7.560;2023-03-22T15:55:04;3.72;;;2.38;;
56728;SDS011;42612;52.232;7.560;2023-03-22T15:57:46;5.57;;;2.47;;
56728;SDS011;42612;52.232;7.560;2023-03-22T16:02:57;4.07;;;1.95;;
56728;SDS011;42612;52.232;7.560;2023-03-22T16:05:45;3.55;;;2.22;;
56728;SDS011;42612;52.232;7.560;2023-03-22T16:08:13;3.47;;;2.10;;
56728;SDS011;42612;52.232;7.560;2023-03-22T16:10:40;5.07;;;2.38;;
56728;SDS011;42612;52.232;7.560;2023-03-22T16:13:08;4.40;;;2.05;;
56728;SDS011;42612;52.232;7.560;2023-03-22T16:15:46;5.65;;;2.08;;
56728;SDS011;42612;52.232;7.560;2023-03-22T16:18:14;2.92;;;2.03;;
56728;SDS011;42612;52.232;7.560;2023-03-22T16:20:42;4.10;;;2.00;;
56728;SDS011;42612;52.232;7.560;2023-03-22T16:23:10;3.80;;;2.30;;
56728;SDS011;42612;52.232;7.560;2023-03-22T16:25:42;3.00;;;1.67;;
56728;SDS011;42612;52.232;7.560;2023-03-22T16:28:09;4.95;;;2.13;;
56728;SDS011;42612;52.232;7.560;2023-03-22T16:30:36;3.35;;;1.50;;
56728;SDS011;42612;52.232;7.560;2023-03-22T16:33:03;3.55;;;1.85;;
56728;SDS011;42612;52.232;7.560;2023-03-22T16:35:29;4.88;;;1.77;;
56728;SDS011;42612;52.232;7.560;2023-03-22T16:37:56;2.47;;;2.05;;
56728;SDS011;42612;52.232;7.560;2023-03-22T16:40:23;3.83;;;2.22;;
56728;SDS011;42612;52.232;7.560;2023-03-22T16:42:53;6.05;;;2.10;;
56728;SDS011;42612;52.232;7.560;2023-03-22T16:45:27;9.55;;;2.40;;
56728;SDS011;42612;52.232;7.560;2023-03-22T16:47:56;5.65;;;3.00;;
56728;SDS011;42612;52.232;7.560;2023-03-22T16:50:23;4.70;;;2.30;;
56728;SDS011;42612;52.232;7.560;2023-03-22T16:52:52;5.10;;;2.80;;
56728;SDS011;42612;52.232;7.560;2023-03-22T16:57:47;5.28;;;2.38;;
56728;SDS011;42612;52.232;7.560;2023-03-22T17:00:15;4.05;;;2.78;;
56728;SDS011;42612;52.232;7.560;2023-03-22T17:02:43;4.10;;;2.70;;
56728;SDS011;42612;52.232;7.560;2023-03-22T17:05:12;8.18;;;3.05;;
56728;SDS011;42612;52.232;7.560;2023-03-22T17:07:39;4.55;;;2.90;;
56728;SDS011;42612;52.232;7.560;2023-03-22T17:10:08;6.50;;;3.08;;
56728;SDS011;42612;52.232;7.560;2023-03-22T17:12:35;3.15;;;2.67;;
56728;SDS011;42612;52.232;7.560;2023-03-22T17:15:03;5.53;;;3.80;;
56728;SDS011;42612;52.232;7.560;2023-03-22T17:17:53;5.38;;;3.35;;
56728;SDS011;42612;52.232;7.560;2023-03-22T17:20:19;5.28;;;3.13;;
56728;SDS011;42612;52.232;7.560;2023-03-22T17:22:46;4.20;;;3.10;;
56728;SDS011;42612;52.232;7.560;2023-03-22T17:25:14;3.50;;;2.80;;
56728;SDS011;42612;52.232;7.560;2023-03-22T17:27:53;5.35;;;2.75;;
56728;SDS011;42612;52.232;7.560;2023-03-22T17:30:20;6.35;;;3.30;;
56728;SDS011;42612;52.232;7.560;2023-03-22T17:32:45;4.32;;;3.25;;